Time;durP1;ratioP1;P1;durP2;ratioP2;P2;SDS_P1;SDS_P2;PMS_P1;PMS_P2;Temp;Humidity;BMP_temperature;BMP_pressure;BME280_temperature;BME280_humidity;BME280_pressure;Samples;Min_cycle;Max_cycle;Signal;HPM_P1;HPM_P2
2023/08/01 00:06:28;;;;;;;1999.90;999.90;;;;;;;;;;6676026;88;20195;-78
2023/08/01 00:16:29;;;;;;;1999.90;999.90;;;;;;;;;;6677174;88;20199;-78
2023/08/01 00:26:30;;;;;;;1999.90;999.90;;;;;;;;;;6675204;88;20338;-79
2023/08/01 00:36:31;;;;;;;1999.90;999.90;;;;;;;;;;6673116;88;20178;-78
2023/08/01 00:46:33;;;;;;;1999.90;999.90;;;;;;;;;;6674741;89;20353;-78
2023/08/01 00:56:34;;;;;;;1999.90;999.90;;;;;;;;;;6672720;89;20233;-77
2023/08/01 01:06:38;;;;;;;1999.90;999.90;;;;;;;;;;6676412;88;20195;-78
2023/08/01 01:16:39;;;;;;;1999.90;999.90;;;;;;;;;;6670225;89;20192;-77
2023/08/01 01:26:41;;;;;;;1999.90;999.90;;;;;;;;;;6680081;77;20652;-77
2023/08/01 01:36:42;;;;;;;1999.90;999.90;;;;;;;;;;6717214;88;20205;-77
2023/08/01 01:46:43;;;;;;;1999.90;999.90;;;;;;;;;;6675268;88;20246;-76
2023/08/01 01:56:44;;;;;;;1999.90;999.90;;;;;;;;;;6666026;89;20324;-78
2023/08/01 02:06:45;;;;;;;1999.90;999.90;;;;;;;;;;6670111;88;20213;-77
2023/08/01 02:16:46;;;;;;;1999.90;999.90;;;;;;;;;;6679347;88;20329;-79
2023/08/01 02:26:47;;;;;;;1999.90;999.90;;;;;;;;;;6681558;88;20208;-79
2023/08/01 02:36:48;;;;;;;1999.90;999.90;;;;;;;;;;6676220;88;20248;-77
2023/08/01 02:46:49;;;;;;;1999.90;999.90;;;;;;;;;;6660308;89;20734;-78
2023/08/01 02:56:51;;;;;;;1999.90;999.90;;;;;;;;;;6667086;88;20651;-77
2023/08/01 03:06:52;;;;;;;1999.90;999.90;;;;;;;;;;6673984;88;20201;-79
2023/08/01 03:16:53;;;;;;;1999.90;999.90;;;;;;;;;;6666806;88;20220;-77
2023/08/01 03:26:54;;;;;;;1999.90;999.90;;;;;;;;;;6663261;88;20225;-78
2023/08/01 03:36:55;;;;;;;1999.90;999.90;;;;;;;;;;6664005;88;20237;-78
2023/08/01 03:46:56;;;;;;;1999.90;999.90;;;;;;;;;;6665664;88;20522;-79
2023/08/01 03:56:57;;;;;;;1999.90;999.90;;;;;;;;;;6669458;88;20228;-79
2023/08/01 04:06:58;;;;;;;1999.90;999.90;;;;;;;;;;6667377;88;20338;-78
2023/08/01 04:16:59;;;;;;;1999.90;999.90;;;;;;;;;;6668948;88;20196;-79
2023/08/01 04:27:00;;;;;;;1999.90;999.90;;;;;;;;;;6670027;88;20215;-78
2023/08/01 04:37:01;;;;;;;1999.90;999.90;;;;;;;;;;6666008;88;20202;-77
2023/08/01 04:47:02;;;;;;;1999.90;999.90;;;;;;;;;;6672583;88;20525;-78
2023/08/01 04:57:03;;;;;;;1999.90;999.90;;;;;;;;;;6662906;89;20196;-78
2023/08/01 05:07:05;;;;;;;1999.90;999.90;;;;;;;;;;6662490;88;20715;-78
2023/08/01 05:17:07;;;;;;;1999.90;999.90;;;;;;;;;;6665176;88;20217;-77
2023/08/01 05:27:08;;;;;;;1999.90;999.90;;;;;;;;;;6665031;88;20652;-79
2023/08/01 05:37:08;;;;;;;1999.90;999.90;;;;;;;;;;6668278;88;20242;-78
2023/08/01 05:47:10;;;;;;;1999.90;999.90;;;;;;;;;;6672722;88;20718;-78
2023/08/01 05:57:11;;;;;;;1999.90;999.90;;;;;;;;;;6665563;89;20218;-77
2023/08/01 06:07:12;;;;;;;1999.90;999.90;;;;;;;;;;6663083;89;20187;-80
2023/08/01 06:17:13;;;;;;;1999.90;999.90;;;;;;;;;;6666462;88;20356;-80
2023/08/01 06:27:15;;;;;;;1999.90;999.90;;;;;;;;;;6665761;89;20216;-78
2023/08/01 06:37:16;;;;;;;1999.90;999.90;;;;;;;;;;6664065;88;20200;-80
2023/08/01 06:47:17;;;;;;;1999.90;999.90;;;;;;;;;;6661342;88;20218;-79
2023/08/01 06:57:17;;;;;;;1999.90;999.90;;;;;;;;;;6677191;88;20185;-78
2023/08/01 07:07:18;;;;;;;1999.90;999.90;;;;;;;;;;6673382;88;20212;-77
2023/08/01 07:17:19;;;;;;;1999.90;999.90;;;;;;;;;;6666241;88;20187;-79
2023/08/01 07:27:21;;;;;;;1999.90;999.90;;;;;;;;;;6669236;88;20203;-79
2023/08/01 07:37:22;;;;;;;1999.90;999.90;;;;;;;;;;6664042;88;20211;-79
2023/08/01 07:47:24;;;;;;;1999.90;999.90;;;;;;;;;;6667038;88;20188;-79
2023/08/01 07:57:24;;;;;;;1999.90;999.90;;;;;;;;;;6661182;88;20209;-79
2023/08/01 08:07:25;;;;;;;1999.90;999.90;;;;;;;;;;6665754;88;20874;-78
2023/08/01 08:17:26;;;;;;;1999.90;999.90;;;;;;;;;;6668247;88;20670;-78
2023/08/01 08:27:27;;;;;;;1999.90;999.90;;;;;;;;;;6670817;88;20232;-80
2023/08/01 08:37:28;;;;;;;1999.90;999.90;;;;;;;;;;6666816;88;20821;-80
2023/08/01 08:47:31;;;;;;;1999.90;999.90;;;;;;;;;;6681818;88;20217;-79
2023/08/01 08:57:32;;;;;;;1999.90;999.90;;;;;;;;;;6666773;89;20225;-80
2023/08/01 09:07:34;;;;;;;1999.90;999.90;;;;;;;;;;6668757;89;20218;-79
2023/08/01 09:17:35;;;;;;;1999.90;999.90;;;;;;;;;;6668580;89;20202;-80
2023/08/01 09:27:36;;;;;;;1999.90;999.90;;;;;;;;;;6685914;89;20326;-79
2023/08/01 09:37:43;;;;;;;1999.90;999.90;;;;;;;;;;6683194;88;20193;-80
2023/08/01 09:47:46;;;;;;;1999.90;999.90;;;;;;;;;;6687416;89;20345;-80
2023/08/01 09:57:49;;;;;;;1999.90;999.90;;;;;;;;;;6687458;87;20187;-80
2023/08/01 10:07:51;;;;;;;1999.90;999.90;;;;;;;;;;6686632;89;20213;-80
2023/08/01 10:17:52;;;;;;;1999.90;999.90;;;;;;;;;;6681422;88;20195;-80
2023/08/01 10:28:00;;;;;;;1999.90;999.90;;;;;;;;;;6674094;89;20223;-81
2023/08/01 10:38:05;;;;;;;1999.90;999.90;;;;;;;;;;6666728;89;20655;-81
2023/08/01 10:48:07;;;;;;;1999.90;999.90;;;;;;;;;;6669932;88;20208;-78
2023/08/01 10:58:09;;;;;;;1999.90;999.90;;;;;;;;;;6682249;89;20188;-81
2023/08/01 11:08:10;;;;;;;1999.90;999.90;;;;;;;;;;6681591;89;20222;-80
2023/08/01 11:18:11;;;;;;;1999.90;999.90;;;;;;;;;;6665641;89;20632;-81
2023/08/01 11:28:13;;;;;;;1999.90;999.90;;;;;;;;;;6671878;89;20209;-80
2023/08/01 11:38:15;;;;;;;1999.90;999.90;;;;;;;;;;6682265;89;20179;-82
2023/08/01 11:48:16;;;;;;;1999.90;999.90;;;;;;;;;;6694234;87;20195;-80
2023/08/01 11:58:17;;;;;;;1999.90;999.90;;;;;;;;;;6685453;89;20180;-79
2023/08/01 12:08:18;;;;;;;1999.90;999.90;;;;;;;;;;6677186;88;20200;-81
2023/08/01 12:18:26;;;;;;;1999.90;999.90;;;;;;;;;;6696219;87;20229;-80
2023/08/01 12:28:27;;;;;;;1999.90;999.90;;;;;;;;;;6682766;88;20282;-80
2023/08/01 12:38:28;;;;;;;1999.90;999.90;;;;;;;;;;6693520;87;20210;-82
2023/08/01 12:48:30;;;;;;;1999.90;999.90;;;;;;;;;;6691501;87;20236;-81
2023/08/01 12:58:31;;;;;;;1999.90;999.90;;;;;;;;;;6695114;87;20183;-80
2023/08/01 13:08:32;;;;;;;1999.90;999.90;;;;;;;;;;6683098;88;20209;-80
2023/08/01 13:18:33;;;;;;;1999.90;999.90;;;;;;;;;;6688796;87;20201;-81
2023/08/01 13:28:33;;;;;;;1999.90;999.90;;;;;;;;;;6685221;89;20449;-82
2023/08/01 13:38:34;;;;;;;1999.90;999.90;;;;;;;;;;6679545;89;20695;-82
2023/08/01 13:48:35;;;;;;;1999.90;999.90;;;;;;;;;;6673827;89;20192;-82
2023/08/01 13:58:38;;;;;;;1999.90;999.90;;;;;;;;;;6681922;89;20668;-81
2023/08/01 14:08:40;;;;;;;1999.90;999.90;;;;;;;;;;6679699;89;20252;-83
2023/08/01 14:18:42;;;;;;;1999.90;999.90;;;;;;;;;;6667831;88;20188;-82
2023/08/01 14:28:43;;;;;;;1999.90;999.90;;;;;;;;;;6665469;88;20267;-83
2023/08/01 14:38:44;;;;;;;1999.90;999.90;;;;;;;;;;6676940;88;20227;-83
2023/08/01 14:48:46;;;;;;;1999.90;999.90;;;;;;;;;;6674130;88;20278;-82
2023/08/01 14:58:47;;;;;;;1999.90;999.90;;;;;;;;;;6669920;88;20192;-82
2023/08/01 15:08:48;;;;;;;1999.90;999.90;;;;;;;;;;6672571;89;20289;-82
2023/08/01 15:18:49;;;;;;;1999.90;999.90;;;;;;;;;;6679899;88;20334;-82
2023/08/01 15:28:50;;;;;;;1999.90;999.90;;;;;;;;;;6665377;89;20192;-82
2023/08/01 15:38:51;;;;;;;1999.90;999.90;;;;;;;;;;6664215;89;20205;-80
2023/08/01 15:48:52;;;;;;;1999.90;999.90;;;;;;;;;;6658707;89;20547;-80
2023/08/01 15:58:53;;;;;;;1999.90;999.90;;;;;;;;;;6654666;88;20222;-79
2023/08/01 16:08:54;;;;;;;1999.90;999.90;;;;;;;;;;6651880;88;20221;-80
2023/08/01 16:18:55;;;;;;;1999.90;999.90;;;;;;;;;;6657091;89;20208;-80
2023/08/01 16:28:56;;;;;;;1999.90;999.90;;;;;;;;;;6655557;89;20188;-78
2023/08/01 16:38:57;;;;;;;1999.90;999.90;;;;;;;;;;6648334;89;20229;-79
2023/08/01 16:48:58;;;;;;;1999.90;999.90;;;;;;;;;;6649205;89;20624;-78
2023/08/01 16:59:00;;;;;;;1999.90;999.90;;;;;;;;;;6655821;89;20204;-79
2023/08/01 17:09:01;;;;;;;1999.90;999.90;;;;;;;;;;6651771;88;20200;-80
2023/08/01 17:19:02;;;;;;;1999.90;999.90;;;;;;;;;;6652953;89;20280;-79
2023/08/01 17:29:03;;;;;;;1999.90;999.90;;;;;;;;;;6649584;89;20207;-82
2023/08/01 17:39:04;;;;;;;1999.90;999.90;;;;;;;;;;6658643;89;20318;-80
2023/08/01 17:49:05;;;;;;;1999.90;999.90;;;;;;;;;;6647026;88;20211;-78
2023/08/01 17:59:06;;;;;;;1999.90;999.90;;;;;;;;;;6647180;89;20188;-77
2023/08/01 18:09:07;;;;;;;1999.90;999.90;;;;;;;;;;6651280;89;20203;-78
2023/08/01 18:19:09;;;;;;;1999.90;999.90;;;;;;;;;;6648225;89;20188;-79
2023/08/01 18:29:10;;;;;;;1999.90;999.90;;;;;;;;;;6646853;89;20654;-78
2023/08/01 18:39:11;;;;;;;1999.90;999.90;;;;;;;;;;6648008;89;20196;-79
2023/08/01 18:49:12;;;;;;;1999.90;999.90;;;;;;;;;;6646153;89;20260;-79
2023/08/01 18:59:13;;;;;;;1999.90;999.90;;;;;;;;;;6646019;89;20216;-77
2023/08/01 19:09:14;;;;;;;1999.90;999.90;;;;;;;;;;6649660;89;20635;-79
2023/08/01 19:19:15;;;;;;;1999.90;999.90;;;;;;;;;;6649547;89;20179;-78
2023/08/01 19:29:16;;;;;;;1999.90;999.90;;;;;;;;;;6654447;89;20209;-78
2023/08/01 19:39:17;;;;;;;1999.90;999.90;;;;;;;;;;6666560;89;20706;-80
2023/08/01 19:49:18;;;;;;;1999.90;999.90;;;;;;;;;;6683506;88;20195;-79
2023/08/01 19:59:21;;;;;;;1999.90;999.90;;;;;;;;;;6688449;88;20631;-79
2023/08/01 20:09:22;;;;;;;1999.90;999.90;;;;;;;;;;6668335;88;20345;-79
2023/08/01 20:19:23;;;;;;;1999.90;999.90;;;;;;;;;;6671233;88;20180;-78
2023/08/01 20:29:24;;;;;;;1999.90;999.90;;;;;;;;;;6675978;88;20614;-80
2023/08/01 20:39:26;;;;;;;1999.90;999.90;;;;;;;;;;6672126;89;20213;-78
2023/08/01 20:49:27;;;;;;;1999.90;999.90;;;;;;;;;;6667740;88;20238;-79
2023/08/01 20:59:30;;;;;;;1999.90;999.90;;;;;;;;;;6668756;88;20196;-78
2023/08/01 21:09:31;;;;;;;1999.90;999.90;;;;;;;;;;6673095;88;20722;-80
2023/08/01 21:19:32;;;;;;;1999.90;999.90;;;;;;;;;;6663987;89;20245;-80
2023/08/01 21:29:33;;;;;;;1999.90;999.90;;;;;;;;;;6666640;89;20807;-80
2023/08/01 21:39:34;;;;;;;1999.90;999.90;;;;;;;;;;6662755;89;20209;-80
2023/08/01 21:49:35;;;;;;;1999.90;999.90;;;;;;;;;;6666324;88;20196;-80
2023/08/01 21:59:36;;;;;;;1999.90;999.90;;;;;;;;;;6662602;88;20310;-79
2023/08/01 22:09:37;;;;;;;1999.90;999.90;;;;;;;;;;6664231;89;20201;-78
2023/08/01 22:19:39;;;;;;;1999.90;999.90;;;;;;;;;;6672221;88;20222;-78
2023/08/01 22:29:40;;;;;;;1999.90;999.90;;;;;;;;;;6671649;88;20208;-79
2023/08/01 22:39:41;;;;;;;1999.90;999.90;;;;;;;;;;6679072;88;20251;-79
2023/08/01 22:49:42;;;;;;;1999.90;999.90;;;;;;;;;;6666547;89;20290;-79
2023/08/01 22:59:43;;;;;;;1999.90;999.90;;;;;;;;;;6664467;89;20205;-78
2023/08/01 23:09:44;;;;;;;1999.90;999.90;;;;;;;;;;6673651;88;20200;-78
2023/08/01 23:19:45;;;;;;;1999.90;999.90;;;;;;;;;;6669301;88;20204;-80
2023/08/01 23:29:46;;;;;;;1999.90;999.90;;;;;;;;;;6661228;89;20229;-78
2023/08/01 23:39:47;;;;;;;1999.90;999.90;;;;;;;;;;6676917;89;20224;-79
2023/08/01 23:49:48;;;;;;;1999.90;999.90;;;;;;;;;;6680062;89;20221;-79
2023/08/01 23:59:49;;;;;;;1999.90;999.90;;;;;;;;;;6686157;88;20308;-79
